sensor_id;sensor_type;location;lat;lon;timestamp;temperature;humidity
2158;DHT22;41972;48.774;9.282;2023-04-24T00:00:46;10.70;99.90
2158;DHT22;41972;48.774;9.282;2023-04-24T00:03:12;10.80;99.90
2158;DHT22;41972;48.774;9.282;2023-04-24T00:05:38;10.80;99.90
2158;DHT22;41972;48.774;9.282;2023-04-24T00:08:05;11.50;99.90
2158;DHT22;41972;48.774;9.282;2023-04-24T00:10:31;10.80;99.90
2158;DHT22;41972;48.774;9.282;2023-04-24T00:12:57;10.70;99.90
2158;DHT22;41972;48.774;9.282;2023-04-24T00:15:22;10.70;99.90
2158;DHT22;41972;48.774;9.282;2023-04-24T00:17:48;10.80;99.90
2158;DHT22;41972;48.774;9.282;2023-04-24T00:20:13;10.70;99.90
2158;DHT22;41972;48.774;9.282;2023-04-24T00:22:40;11.60;99.90
2158;DHT22;41972;48.774;9.282;2023-04-24T00:25:05;11.20;99.90
2158;DHT22;41972;48.774;9.282;2023-04-24T00:27:32;10.50;99.90
2158;DHT22;41972;48.774;9.282;2023-04-24T00:29:57;10.60;99.90
2158;DHT22;41972;48.774;9.282;2023-04-24T00:32:23;10.40;99.90
2158;DHT22;41972;48.774;9.282;2023-04-24T00:34:48;10.40;99.90
2158;DHT22;41972;48.774;9.282;2023-04-24T00:37:14;10.50;99.90
2158;DHT22;41972;48.774;9.282;2023-04-24T00:39:40;10.60;99.90
2158;DHT22;41972;48.774;9.282;2023-04-24T00:42:05;10.70;99.90
2158;DHT22;41972;48.774;9.282;2023-04-24T00:44:33;10.60;99.90
2158;DHT22;41972;48.774;9.282;2023-04-24T00:47:01;10.50;99.90
2158;DHT22;41972;48.774;9.282;2023-04-24T00:49:26;10.60;99.90
2158;DHT22;41972;48.774;9.282;2023-04-24T00:51:52;10.50;99.90
2158;DHT22;41972;48.774;9.282;2023-04-24T00:54:19;10.60;99.90
2158;DHT22;41972;48.774;9.282;2023-04-24T00:56:45;11.30;99.90
2158;DHT22;41972;48.774;9.282;2023-04-24T00:59:12;10.50;99.90
2158;DHT22;41972;48.774;9.282;2023-04-24T01:01:39;10.50;99.90
2158;DHT22;41972;48.774;9.282;2023-04-24T01:04:08;10.50;99.90
2158;DHT22;41972;48.774;9.282;2023-04-24T01:06:38;10.60;99.90
2158;DHT22;41972;48.774;9.282;2023-04-24T01:09:04;10.50;99.90
2158;DHT22;41972;48.774;9.282;2023-04-24T01:11:30;10.60;99.90
2158;DHT22;41972;48.774;9.282;2023-04-24T01:13:56;10.60;99.90
2158;DHT22;41972;48.774;9.282;2023-04-24T01:16:22;10.70;99.90
2158;DHT22;41972;48.774;9.282;2023-04-24T01:18:48;10.90;99.90
2158;DHT22;41972;48.774;9.282;2023-04-24T01:21:15;10.70;99.90
2158;DHT22;41972;48.774;9.282;2023-04-24T01:23:44;10.80;99.90
2158;DHT22;41972;48.774;9.282;2023-04-24T01:26:10;10.80;99.90
2158;DHT22;41972;48.774;9.282;2023-04-24T01:28:36;11.90;99.90
2158;DHT22;41972;48.774;9.282;2023-04-24T01:31:02;10.80;99.90
2158;DHT22;41972;48.774;9.282;2023-04-24T01:33:27;10.80;99.90
2158;DHT22;41972;48.774;9.282;2023-04-24T01:35:54;10.80;99.90
2158;DHT22;41972;48.774;9.282;2023-04-24T01:38:20;10.80;99.90
2158;DHT22;41972;48.774;9.282;2023-04-24T01:40:46;11.60;99.90
2158;DHT22;41972;48.774;9.282;2023-04-24T01:43:12;10.90;99.90
2158;DHT22;41972;48.774;9.282;2023-04-24T01:45:38;10.90;99.90
2158;DHT22;41972;48.774;9.282;2023-04-24T01:48:03;10.80;99.90
2158;DHT22;41972;48.774;9.282;2023-04-24T01:50:29;10.90;99.90
2158;DHT22;41972;48.774;9.282;2023-04-24T01:52:55;10.70;99.90
2158;DHT22;41972;48.774;9.282;2023-04-24T01:55:21;10.80;99.90
2158;DHT22;41972;48.774;9.282;2023-04-24T01:57:47;10.50;99.90
2158;DHT22;41972;48.774;9.282;2023-04-24T02:00:12;10.40;99.90
2158;DHT22;41972;48.774;9.282;2023-04-24T02:02:39;10.50;99.90
2158;DHT22;41972;48.774;9.282;2023-04-24T02:05:07;10.60;99.90
2158;DHT22;41972;48.774;9.282;2023-04-24T02:07:33;10.40;99.90
2158;DHT22;41972;48.774;9.282;2023-04-24T02:09:58;11.00;99.90
2158;DHT22;41972;48.774;9.282;2023-04-24T02:12:24;10.30;99.90
2158;DHT22;41972;48.774;9.282;2023-04-24T02:14:49;10.50;99.90
2158;DHT22;41972;48.774;9.282;2023-04-24T02:17:15;10.40;99.90
2158;DHT22;41972;48.774;9.282;2023-04-24T02:19:41;10.50;99.90
2158;DHT22;41972;48.774;9.282;2023-04-24T02:22:07;10.50;99.90
2158;DHT22;41972;48.774;9.282;2023-04-24T02:24:32;10.50;99.90
2158;DHT22;41972;48.774;9.282;2023-04-24T02:26:58;10.50;99.90
2158;DHT22;41972;48.774;9.282;2023-04-24T02:29:23;10.50;99.90
2158;DHT22;41972;48.774;9.282;2023-04-24T02:31:49;10.50;99.90
2158;DHT22;41972;48.774;9.282;2023-04-24T02:34:15;10.60;99.90
2158;DHT22;41972;48.774;9.282;2023-04-24T02:36:41;10.60;99.90
2158;DHT22;41972;48.774;9.282;2023-04-24T02:39:07;10.50;99.90
2158;DHT22;41972;48.774;9.282;2023-04-24T02:41:33;10.50;99.90
2158;DHT22;41972;48.774;9.282;2023-04-24T02:43:58;10.50;99.90
2158;DHT22;41972;48.774;9.282;2023-04-24T02:46:24;10.60;99.90
2158;DHT22;41972;48.774;9.282;2023-04-24T02:48:50;10.70;99.90
2158;DHT22;41972;48.774;9.282;2023-04-24T02:51:16;10.70;99.90
2158;DHT22;41972;48.774;9.282;2023-04-24T02:53:41;10.70;99.90
2158;DHT22;41972;48.774;9.282;2023-04-24T02:56:07;10.80;99.90
2158;DHT22;41972;48.774;9.282;2023-04-24T02:58:32;10.80;99.90
2158;DHT22;41972;48.774;9.282;2023-04-24T03:00:58;10.80;99.90
2158;DHT22;41972;48.774;9.282;2023-04-24T03:03:24;10.60;99.90
2158;DHT22;41972;48.774;9.282;2023-04-24T03:05:49;10.50;99.90
2158;DHT22;41972;48.774;9.282;2023-04-24T03:08:15;10.80;99.90
2158;DHT22;41972;48.774;9.282;2023-04-24T03:10:41;10.50;99.90
2158;DHT22;41972;48.774;9.282;2023-04-24T03:13:06;10.50;99.90
2158;DHT22;41972;48.774;9.282;2023-04-24T03:15:32;10.40;99.90
2158;DHT22;41972;48.774;9.282;2023-04-24T03:17:57;10.70;99.90
2158;DHT22;41972;48.774;9.282;2023-04-24T03:20:23;10.40;99.90
2158;DHT22;41972;48.774;9.282;2023-04-24T03:22:49;10.40;99.90
2158;DHT22;41972;48.774;9.282;2023-04-24T03:25:14;10.50;99.90
2158;DHT22;41972;48.774;9.282;2023-04-24T03:27:40;10.40;99.90
2158;DHT22;41972;48.774;9.282;2023-04-24T03:30:07;10.50;99.90
2158;DHT22;41972;48.774;9.282;2023-04-24T03:32:33;10.40;99.90
2158;DHT22;41972;48.774;9.282;2023-04-24T03:34:58;10.40;99.90
2158;DHT22;41972;48.774;9.282;2023-04-24T03:37:24;10.30;99.90
2158;DHT22;41972;48.774;9.282;2023-04-24T03:39:49;10.20;99.90
2158;DHT22;41972;48.774;9.282;2023-04-24T03:42:15;10.20;99.90
2158;DHT22;41972;48.774;9.282;2023-04-24T03:44:40;10.10;99.90
2158;DHT22;41972;48.774;9.282;2023-04-24T03:47:06;10.10;99.90
2158;DHT22;41972;48.774;9.282;2023-04-24T03:49:32;10.10;99.90
2158;DHT22;41972;48.774;9.282;2023-04-24T03:51:57;10.10;99.90
2158;DHT22;41972;48.774;9.282;2023-04-24T03:54:25;10.10;99.90
2158;DHT22;41972;48.774;9.282;2023-04-24T03:56:50;10.10;99.90
2158;DHT22;41972;48.774;9.282;2023-04-24T03:59:16;10.10;99.90
2158;DHT22;41972;48.774;9.282;2023-04-24T04:01:42;10.10;99.90
2158;DHT22;41972;48.774;9.282;2023-04-24T04:04:07;10.10;99.90
2158;DHT22;41972;48.774;9.282;2023-04-24T04:06:33;9.90;99.90
2158;DHT22;41972;48.774;9.282;2023-04-24T04:08:59;9.90;99.90
2158;DHT22;41972;48.774;9.282;2023-04-24T04:11:25;9.90;99.90
2158;DHT22;41972;48.774;9.282;2023-04-24T04:13:52;9.90;99.90
2158;DHT22;41972;48.774;9.282;2023-04-24T04:16:17;9.90;99.90
2158;DHT22;41972;48.774;9.282;2023-04-24T04:18:43;9.90;99.90
2158;DHT22;41972;48.774;9.282;2023-04-24T04:21:09;10.40;99.90
2158;DHT22;41972;48.774;9.282;2023-04-24T04:23:35;10.00;99.90
2158;DHT22;41972;48.774;9.282;2023-04-24T04:26:01;10.00;99.90
2158;DHT22;41972;48.774;9.282;2023-04-24T04:28:26;10.10;99.90
2158;DHT22;41972;48.774;9.282;2023-04-24T04:30:52;10.20;99.90
2158;DHT22;41972;48.774;9.282;2023-04-24T04:33:20;10.20;99.90
2158;DHT22;41972;48.774;9.282;2023-04-24T04:35:46;10.10;99.90
2158;DHT22;41972;48.774;9.282;2023-04-24T04:38:14;10.20;99.90
2158;DHT22;41972;48.774;9.282;2023-04-24T04:40:40;10.20;99.90
2158;DHT22;41972;48.774;9.282;2023-04-24T04:43:06;10.10;99.90
2158;DHT22;41972;48.774;9.282;2023-04-24T04:45:31;10.00;99.90
2158;DHT22;41972;48.774;9.282;2023-04-24T04:48:00;10.00;99.90
2158;DHT22;41972;48.774;9.282;2023-04-24T04:50:27;10.30;99.90
2158;DHT22;41972;48.774;9.282;2023-04-24T04:52:52;9.80;99.90
2158;DHT22;41972;48.774;9.282;2023-04-24T04:55:18;9.70;99.90
2158;DHT22;41972;48.774;9.282;2023-04-24T04:57:45;9.60;99.90
2158;DHT22;41972;48.774;9.282;2023-04-24T05:00:12;9.50;99.90
2158;DHT22;41972;48.774;9.282;2023-04-24T05:02:38;9.50;99.90
2158;DHT22;41972;48.774;9.282;2023-04-24T05:05:05;9.60;99.90
2158;DHT22;41972;48.774;9.282;2023-04-24T05:07:31;9.50;99.90
2158;DHT22;41972;48.774;9.282;2023-04-24T05:09:57;9.40;99.90
2158;DHT22;41972;48.774;9.282;2023-04-24T05:12:22;9.50;99.90
2158;DHT22;41972;48.774;9.282;2023-04-24T05:14:48;10.40;99.90
2158;DHT22;41972;48.774;9.282;2023-04-24T05:17:13;9.60;99.90
2158;DHT22;41972;48.774;9.282;2023-04-24T05:19:40;9.50;99.90
2158;DHT22;41972;48.774;9.282;2023-04-24T05:22:05;9.60;99.90
2158;DHT22;41972;48.774;9.282;2023-04-24T05:24:35;9.70;99.90
2158;DHT22;41972;48.774;9.282;2023-04-24T05:27:01;10.10;99.90
2158;DHT22;41972;48.774;9.282;2023-04-24T05:29:28;9.70;99.90
2158;DHT22;41972;48.774;9.282;2023-04-24T05:31:56;9.60;99.90
2158;DHT22;41972;48.774;9.282;2023-04-24T05:34:22;9.70;99.90
2158;DHT22;41972;48.774;9.282;2023-04-24T05:36:48;9.70;99.90
2158;DHT22;41972;48.774;9.282;2023-04-24T05:39:14;9.30;99.90
2158;DHT22;41972;48.774;9.282;2023-04-24T05:41:40;9.50;99.90
2158;DHT22;41972;48.774;9.282;2023-04-24T05:44:06;9.60;99.90
2158;DHT22;41972;48.774;9.282;2023-04-24T05:46:32;9.70;99.90
2158;DHT22;41972;48.774;9.282;2023-04-24T05:48:58;9.40;99.90
2158;DHT22;41972;48.774;9.282;2023-04-24T05:51:24;9.60;99.90
2158;DHT22;41972;48.774;9.282;2023-04-24T05:53:49;9.40;99.90
2158;DHT22;41972;48.774;9.282;2023-04-24T05:56:15;9.50;99.90
2158;DHT22;41972;48.774;9.282;2023-04-24T05:58:41;9.70;99.90
2158;DHT22;41972;48.774;9.282;2023-04-24T06:01:06;9.90;99.90
2158;DHT22;41972;48.774;9.282;2023-04-24T06:03:32;10.20;99.90
2158;DHT22;41972;48.774;9.282;2023-04-24T06:05:58;10.30;99.90
2158;DHT22;41972;48.774;9.282;2023-04-24T06:08:23;10.00;99.90
2158;DHT22;41972;48.774;9.282;2023-04-24T06:10:49;9.80;99.90
2158;DHT22;41972;48.774;9.282;2023-04-24T06:13:15;10.10;99.90
2158;DHT22;41972;48.774;9.282;2023-04-24T06:15:41;10.80;99.90
2158;DHT22;41972;48.774;9.282;2023-04-24T06:18:07;9.70;99.90
2158;DHT22;41972;48.774;9.282;2023-04-24T06:20:35;9.70;99.90
2158;DHT22;41972;48.774;9.282;2023-04-24T06:23:01;9.90;99.90
2158;DHT22;41972;48.774;9.282;2023-04-24T06:25:28;10.10;99.90
2158;DHT22;41972;48.774;9.282;2023-04-24T06:27:54;11.10;99.90
2158;DHT22;41972;48.774;9.282;2023-04-24T06:30:20;12.20;99.90
2158;DHT22;41972;48.774;9.282;2023-04-24T06:32:45;13.60;99.90
2158;DHT22;41972;48.774;9.282;2023-04-24T06:35:11;14.70;99.90
2158;DHT22;41972;48.774;9.282;2023-04-24T06:37:39;15.60;99.90
2158;DHT22;41972;48.774;9.282;2023-04-24T06:40:06;15.40;99.90
2158;DHT22;41972;48.774;9.282;2023-04-24T06:42:31;15.10;99.90
2158;DHT22;41972;48.774;9.282;2023-04-24T06:44:57;16.00;99.90
2158;DHT22;41972;48.774;9.282;2023-04-24T06:47:22;15.50;99.90
2158;DHT22;41972;48.774;9.282;2023-04-24T06:49:48;16.90;99.90
2158;DHT22;41972;48.774;9.282;2023-04-24T06:52:16;13.80;99.90
2158;DHT22;41972;48.774;9.282;2023-04-24T06:54:41;14.70;99.90
2158;DHT22;41972;48.774;9.282;2023-04-24T06:57:08;16.10;99.90
2158;DHT22;41972;48.774;9.282;2023-04-24T06:59:33;17.50;99.90
2158;DHT22;41972;48.774;9.282;2023-04-24T07:01:59;16.40;99.90
2158;DHT22;41972;48.774;9.282;2023-04-24T07:04:25;17.30;99.90
2158;DHT22;41972;48.774;9.282;2023-04-24T07:06:51;18.10;99.90
2158;DHT22;41972;48.774;9.282;2023-04-24T07:09:19;17.00;99.90
2158;DHT22;41972;48.774;9.282;2023-04-24T07:11:45;18.50;99.90
2158;DHT22;41972;48.774;9.282;2023-04-24T07:14:11;18.70;99.90
2158;DHT22;41972;48.774;9.282;2023-04-24T07:16:37;16.90;99.90
2158;DHT22;41972;48.774;9.282;2023-04-24T07:19:03;15.50;99.90
2158;DHT22;41972;48.774;9.282;2023-04-24T07:21:28;15.40;99.90
2158;DHT22;41972;48.774;9.282;2023-04-24T07:23:56;14.30;99.90
2158;DHT22;41972;48.774;9.282;2023-04-24T07:26:21;15.00;99.90
2158;DHT22;41972;48.774;9.282;2023-04-24T07:28:47;14.70;99.90
2158;DHT22;41972;48.774;9.282;2023-04-24T07:31:12;13.90;99.90
2158;DHT22;41972;48.774;9.282;2023-04-24T07:33:38;13.00;99.90
2158;DHT22;41972;48.774;9.282;2023-04-24T07:36:04;12.40;99.90
2158;DHT22;41972;48.774;9.282;2023-04-24T07:38:30;12.10;99.90
2158;DHT22;41972;48.774;9.282;2023-04-24T07:40:56;12.10;99.90
2158;DHT22;41972;48.774;9.282;2023-04-24T07:43:22;12.00;99.90
2158;DHT22;41972;48.774;9.282;2023-04-24T07:45:51;12.30;99.90
2158;DHT22;41972;48.774;9.282;2023-04-24T07:48:17;12.50;99.90
2158;DHT22;41972;48.774;9.282;2023-04-24T07:50:44;12.80;99.90
2158;DHT22;41972;48.774;9.282;2023-04-24T07:53:09;14.00;99.90
2158;DHT22;41972;48.774;9.282;2023-04-24T07:55:35;15.40;99.90
2158;DHT22;41972;48.774;9.282;2023-04-24T07:58:01;14.10;99.90
2158;DHT22;41972;48.774;9.282;2023-04-24T08:00:27;15.60;99.90
2158;DHT22;41972;48.774;9.282;2023-04-24T08:02:52;16.00;99.90
2158;DHT22;41972;48.774;9.282;2023-04-24T08:05:18;17.40;99.90
2158;DHT22;41972;48.774;9.282;2023-04-24T08:07:45;16.70;99.90
2158;DHT22;41972;48.774;9.282;2023-04-24T08:10:11;15.20;99.90
2158;DHT22;41972;48.774;9.282;2023-04-24T08:12:37;15.70;99.90
2158;DHT22;41972;48.774;9.282;2023-04-24T08:15:04;16.00;99.90
2158;DHT22;41972;48.774;9.282;2023-04-24T08:17:30;16.10;99.90
2158;DHT22;41972;48.774;9.282;2023-04-24T08:19:55;16.70;99.90
2158;DHT22;41972;48.774;9.282;2023-04-24T08:22:27;15.30;99.90
2158;DHT22;41972;48.774;9.282;2023-04-24T08:24:53;14.60;99.90
2158;DHT22;41972;48.774;9.282;2023-04-24T08:27:18;16.40;99.90
2158;DHT22;41972;48.774;9.282;2023-04-24T08:29:44;16.60;99.90
2158;DHT22;41972;48.774;9.282;2023-04-24T08:32:10;16.60;99.90
2158;DHT22;41972;48.774;9.282;2023-04-24T08:34:35;16.00;99.90
2158;DHT22;41972;48.774;9.282;2023-04-24T08:37:01;15.80;99.90
2158;DHT22;41972;48.774;9.282;2023-04-24T08:39:27;15.20;99.90
2158;DHT22;41972;48.774;9.282;2023-04-24T08:41:53;16.60;99.90
2158;DHT22;41972;48.774;9.282;2023-04-24T08:44:19;17.20;99.90
2158;DHT22;41972;48.774;9.282;2023-04-24T08:46:47;15.70;99.90
2158;DHT22;41972;48.774;9.282;2023-04-24T08:49:14;16.30;99.90
2158;DHT22;41972;48.774;9.282;2023-04-24T08:51:43;16.20;99.90
2158;DHT22;41972;48.774;9.282;2023-04-24T08:54:09;16.20;99.90
2158;DHT22;41972;48.774;9.282;2023-04-24T08:56:37;15.50;99.90
2158;DHT22;41972;48.774;9.282;2023-04-24T08:59:08;14.70;99.90
2158;DHT22;41972;48.774;9.282;2023-04-24T09:01:34;15.20;99.90
2158;DHT22;41972;48.774;9.282;2023-04-24T09:04:02;13.80;99.90
2158;DHT22;41972;48.774;9.282;2023-04-24T09:06:30;13.10;99.90
2158;DHT22;41972;48.774;9.282;2023-04-24T09:08:59;12.90;99.90
2158;DHT22;41972;48.774;9.282;2023-04-24T09:11:26;12.50;99.90
2158;DHT22;41972;48.774;9.282;2023-04-24T09:13:53;12.90;99.90
2158;DHT22;41972;48.774;9.282;2023-04-24T09:16:20;12.70;99.90
2158;DHT22;41972;48.774;9.282;2023-04-24T09:18:46;12.60;99.90
2158;DHT22;41972;48.774;9.282;2023-04-24T09:21:11;13.10;99.90
2158;DHT22;41972;48.774;9.282;2023-04-24T09:23:37;12.10;99.90
2158;DHT22;41972;48.774;9.282;2023-04-24T09:26:04;11.90;99.90
2158;DHT22;41972;48.774;9.282;2023-04-24T09:28:35;11.30;99.90
2158;DHT22;41972;48.774;9.282;2023-04-24T09:31:06;12.20;99.90
2158;DHT22;41972;48.774;9.282;2023-04-24T09:33:32;10.90;99.90
2158;DHT22;41972;48.774;9.282;2023-04-24T09:35:58;10.50;99.90
2158;DHT22;41972;48.774;9.282;2023-04-24T09:38:35;10.90;99.90
2158;DHT22;41972;48.774;9.282;2023-04-24T09:41:03;11.00;99.90
2158;DHT22;41972;48.774;9.282;2023-04-24T09:43:30;11.40;99.90
2158;DHT22;41972;48.774;9.282;2023-04-24T09:45:57;12.40;99.90
2158;DHT22;41972;48.774;9.282;2023-04-24T09:48:34;13.60;99.90
2158;DHT22;41972;48.774;9.282;2023-04-24T09:51:01;14.30;99.90
2158;DHT22;41972;48.774;9.282;2023-04-24T09:53:27;15.30;99.90
2158;DHT22;41972;48.774;9.282;2023-04-24T09:55:53;14.90;99.90
2158;DHT22;41972;48.774;9.282;2023-04-24T09:58:25;14.90;99.90
2158;DHT22;41972;48.774;9.282;2023-04-24T10:00:54;16.30;99.90
2158;DHT22;41972;48.774;9.282;2023-04-24T10:03:20;15.50;99.90
2158;DHT22;41972;48.774;9.282;2023-04-24T10:05:46;13.90;99.90
2158;DHT22;41972;48.774;9.282;2023-04-24T10:08:12;13.20;99.90
2158;DHT22;41972;48.774;9.282;2023-04-24T10:10:42;12.80;99.90
2158;DHT22;41972;48.774;9.282;2023-04-24T10:13:12;12.70;99.90
2158;DHT22;41972;48.774;9.282;2023-04-24T10:15:40;12.70;99.90
2158;DHT22;41972;48.774;9.282;2023-04-24T10:18:06;13.30;99.90
2158;DHT22;41972;48.774;9.282;2023-04-24T10:20:33;12.90;99.90
2158;DHT22;41972;48.774;9.282;2023-04-24T10:22:59;13.30;99.90
2158;DHT22;41972;48.774;9.282;2023-04-24T10:25:30;12.80;99.90
2158;DHT22;41972;48.774;9.282;2023-04-24T10:27:57;13.20;99.90
2158;DHT22;41972;48.774;9.282;2023-04-24T10:30:25;13.50;99.90
2158;DHT22;41972;48.774;9.282;2023-04-24T10:32:51;15.80;99.90
2158;DHT22;41972;48.774;9.282;2023-04-24T10:35:17;18.10;99.90
2158;DHT22;41972;48.774;9.282;2023-04-24T10:37:49;17.40;99.90
2158;DHT22;41972;48.774;9.282;2023-04-24T10:40:31;16.80;99.90
2158;DHT22;41972;48.774;9.282;2023-04-24T10:42:58;16.50;99.90
2158;DHT22;41972;48.774;9.282;2023-04-24T10:45:24;15.80;99.90
2158;DHT22;41972;48.774;9.282;2023-04-24T10:47:57;15.50;99.90
2158;DHT22;41972;48.774;9.282;2023-04-24T10:50:25;14.90;99.90
2158;DHT22;41972;48.774;9.282;2023-04-24T10:52:51;13.70;99.90
2158;DHT22;41972;48.774;9.282;2023-04-24T10:58:06;13.00;99.90
2158;DHT22;41972;48.774;9.282;2023-04-24T11:00:31;13.00;99.90
2158;DHT22;41972;48.774;9.282;2023-04-24T11:02:57;12.60;99.90
2158;DHT22;41972;48.774;9.282;2023-04-24T11:05:59;12.30;99.90
2158;DHT22;41972;48.774;9.282;2023-04-24T11:08:38;12.30;99.90
2158;DHT22;41972;48.774;9.282;2023-04-24T11:11:15;12.40;99.90
2158;DHT22;41972;48.774;9.282;2023-04-24T11:16:31;12.80;99.90
2158;DHT22;41972;48.774;9.282;2023-04-24T11:32:30;11.90;99.90
2158;DHT22;41972;48.774;9.282;2023-04-24T11:34:58;12.30;99.90
2158;DHT22;41972;48.774;9.282;2023-04-24T11:37:27;12.80;99.90
2158;DHT22;41972;48.774;9.282;2023-04-24T11:39:57;12.80;99.90
2158;DHT22;41972;48.774;9.282;2023-04-24T11:42:23;12.90;99.90
2158;DHT22;41972;48.774;9.282;2023-04-24T11:44:49;13.70;99.90
2158;DHT22;41972;48.774;9.282;2023-04-24T11:47:15;14.70;99.90
2158;DHT22;41972;48.774;9.282;2023-04-24T11:49:41;14.80;99.90
2158;DHT22;41972;48.774;9.282;2023-04-24T11:52:07;15.30;99.90
2158;DHT22;41972;48.774;9.282;2023-04-24T11:54:32;15.10;99.90
2158;DHT22;41972;48.774;9.282;2023-04-24T11:56:58;14.70;99.90
2158;DHT22;41972;48.774;9.282;2023-04-24T11:59:24;13.30;99.90
2158;DHT22;41972;48.774;9.282;2023-04-24T12:01:50;12.80;99.90
2158;DHT22;41972;48.774;9.282;2023-04-24T12:04:17;12.40;99.90
2158;DHT22;41972;48.774;9.282;2023-04-24T12:07:02;11.60;99.90
2158;DHT22;41972;48.774;9.282;2023-04-24T12:09:29;11.90;99.90
2158;DHT22;41972;48.774;9.282;2023-04-24T12:12:06;12.40;99.90
2158;DHT22;41972;48.774;9.282;2023-04-24T12:14:32;12.60;99.90
2158;DHT22;41972;48.774;9.282;2023-04-24T12:16:57;13.90;99.90
2158;DHT22;41972;48.774;9.282;2023-04-24T12:19:23;14.80;99.90
2158;DHT22;41972;48.774;9.282;2023-04-24T12:22:05;15.40;99.90
2158;DHT22;41972;48.774;9.282;2023-04-24T12:24:31;15.80;99.90
2158;DHT22;41972;48.774;9.282;2023-04-24T12:26:57;14.00;99.90
2158;DHT22;41972;48.774;9.282;2023-04-24T12:29:24;14.00;99.90
2158;DHT22;41972;48.774;9.282;2023-04-24T12:31:51;13.70;99.90
2158;DHT22;41972;48.774;9.282;2023-04-24T12:34:24;13.30;99.90
2158;DHT22;41972;48.774;9.282;2023-04-24T12:36:50;13.00;99.90
2158;DHT22;41972;48.774;9.282;2023-04-24T12:39:17;13.40;99.90
2158;DHT22;41972;48.774;9.282;2023-04-24T12:41:54;12.80;99.90
2158;DHT22;41972;48.774;9.282;2023-04-24T12:44:31;12.70;99.90
2158;DHT22;41972;48.774;9.282;2023-04-24T12:46:58;13.00;99.90
2158;DHT22;41972;48.774;9.282;2023-04-24T12:49:23;12.80;99.90
2158;DHT22;41972;48.774;9.282;2023-04-24T12:51:49;12.50;99.90
2158;DHT22;41972;48.774;9.282;2023-04-24T12:54:14;12.30;99.90
2158;DHT22;41972;48.774;9.282;2023-04-24T12:56:40;12.80;99.90
2158;DHT22;41972;48.774;9.282;2023-04-24T12:59:06;13.30;99.90
2158;DHT22;41972;48.774;9.282;2023-04-24T13:01:31;13.00;99.90
2158;DHT22;41972;48.774;9.282;2023-04-24T13:03:57;12.90;99.90
2158;DHT22;41972;48.774;9.282;2023-04-24T13:06:22;12.50;99.90
2158;DHT22;41972;48.774;9.282;2023-04-24T13:08:48;12.40;99.90
2158;DHT22;41972;48.774;9.282;2023-04-24T13:11:14;11.90;99.90
2158;DHT22;41972;48.774;9.282;2023-04-24T13:13:39;12.00;99.90
2158;DHT22;41972;48.774;9.282;2023-04-24T13:16:05;11.90;99.90
2158;DHT22;41972;48.774;9.282;2023-04-24T13:18:30;11.90;99.90
2158;DHT22;41972;48.774;9.282;2023-04-24T13:20:56;11.70;99.90
2158;DHT22;41972;48.774;9.282;2023-04-24T13:23:22;11.30;99.90
2158;DHT22;41972;48.774;9.282;2023-04-24T13:25:48;10.90;99.90
2158;DHT22;41972;48.774;9.282;2023-04-24T13:28:13;11.80;99.90
2158;DHT22;41972;48.774;9.282;2023-04-24T13:30:39;12.40;99.90
2158;DHT22;41972;48.774;9.282;2023-04-24T13:33:05;12.30;99.90
2158;DHT22;41972;48.774;9.282;2023-04-24T13:35:31;12.70;99.90
2158;DHT22;41972;48.774;9.282;2023-04-24T13:37:57;12.70;99.90
2158;DHT22;41972;48.774;9.282;2023-04-24T13:40:23;12.80;99.90
2158;DHT22;41972;48.774;9.282;2023-04-24T13:42:49;13.00;99.90
2158;DHT22;41972;48.774;9.282;2023-04-24T13:45:14;13.40;99.90
2158;DHT22;41972;48.774;9.282;2023-04-24T13:47:40;13.60;99.90
2158;DHT22;41972;48.774;9.282;2023-04-24T13:50:09;12.90;99.90
2158;DHT22;41972;48.774;9.282;2023-04-24T13:52:35;12.40;99.90
2158;DHT22;41972;48.774;9.282;2023-04-24T13:55:00;12.60;99.90
2158;DHT22;41972;48.774;9.282;2023-04-24T13:57:26;12.50;99.90
2158;DHT22;41972;48.774;9.282;2023-04-24T13:59:53;12.00;99.90
2158;DHT22;41972;48.774;9.282;2023-04-24T14:02:20;12.00;99.90
2158;DHT22;41972;48.774;9.282;2023-04-24T14:04:46;11.60;99.90
2158;DHT22;41972;48.774;9.282;2023-04-24T14:07:13;11.00;99.90
2158;DHT22;41972;48.774;9.282;2023-04-24T14:09:39;10.40;99.90
2158;DHT22;41972;48.774;9.282;2023-04-24T14:12:04;11.20;99.90
2158;DHT22;41972;48.774;9.282;2023-04-24T14:14:31;10.20;99.90
2158;DHT22;41972;48.774;9.282;2023-04-24T14:16:57;11.30;99.90
2158;DHT22;41972;48.774;9.282;2023-04-24T14:19:22;11.40;99.90
2158;DHT22;41972;48.774;9.282;2023-04-24T14:21:48;11.70;99.90
2158;DHT22;41972;48.774;9.282;2023-04-24T14:24:14;12.00;99.90
2158;DHT22;41972;48.774;9.282;2023-04-24T14:26:39;12.30;99.90
2158;DHT22;41972;48.774;9.282;2023-04-24T14:29:05;12.60;99.90
2158;DHT22;41972;48.774;9.282;2023-04-24T14:31:31;12.80;99.90
2158;DHT22;41972;48.774;9.282;2023-04-24T14:33:56;12.70;99.90
2158;DHT22;41972;48.774;9.282;2023-04-24T14:36:22;12.80;99.90
2158;DHT22;41972;48.774;9.282;2023-04-24T14:38:49;12.60;99.90
2158;DHT22;41972;48.774;9.282;2023-04-24T14:41:14;12.40;99.90
2158;DHT22;41972;48.774;9.282;2023-04-24T14:43:40;12.00;99.90
2158;DHT22;41972;48.774;9.282;2023-04-24T14:46:05;11.50;99.90
2158;DHT22;41972;48.774;9.282;2023-04-24T14:48:31;11.60;99.90
2158;DHT22;41972;48.774;9.282;2023-04-24T14:50:57;11.70;99.90
2158;DHT22;41972;48.774;9.282;2023-04-24T14:53:22;11.50;99.90
2158;DHT22;41972;48.774;9.282;2023-04-24T14:55:48;12.20;99.90
2158;DHT22;41972;48.774;9.282;2023-04-24T14:58:13;12.80;99.90
2158;DHT22;41972;48.774;9.282;2023-04-24T15:00:39;12.60;99.90
2158;DHT22;41972;48.774;9.282;2023-04-24T15:03:04;12.10;99.90
2158;DHT22;41972;48.774;9.282;2023-04-24T15:05:30;12.00;99.90
2158;DHT22;41972;48.774;9.282;2023-04-24T15:07:56;12.60;99.90
2158;DHT22;41972;48.774;9.282;2023-04-24T15:10:21;12.60;99.90
2158;DHT22;41972;48.774;9.282;2023-04-24T15:12:49;12.70;99.90
2158;DHT22;41972;48.774;9.282;2023-04-24T15:15:15;13.10;99.90
2158;DHT22;41972;48.774;9.282;2023-04-24T15:17:40;13.00;99.90
2158;DHT22;41972;48.774;9.282;2023-04-24T15:20:06;13.10;99.90
2158;DHT22;41972;48.774;9.282;2023-04-24T15:22:32;12.80;99.90
2158;DHT22;41972;48.774;9.282;2023-04-24T15:24:58;12.60;99.90
2158;DHT22;41972;48.774;9.282;2023-04-24T15:27:23;12.50;99.90
2158;DHT22;41972;48.774;9.282;2023-04-24T15:29:49;12.50;99.90
2158;DHT22;41972;48.774;9.282;2023-04-24T15:32:15;12.70;99.90
2158;DHT22;41972;48.774;9.282;2023-04-24T15:34:40;11.90;99.90
2158;DHT22;41972;48.774;9.282;2023-04-24T15:37:06;11.60;99.90
2158;DHT22;41972;48.774;9.282;2023-04-24T15:39:31;11.80;99.90
2158;DHT22;41972;48.774;9.282;2023-04-24T15:41:58;11.70;99.90
2158;DHT22;41972;48.774;9.282;2023-04-24T15:44:24;11.50;99.90
2158;DHT22;41972;48.774;9.282;2023-04-24T15:46:49;11.70;99.90
2158;DHT22;41972;48.774;9.282;2023-04-24T15:49:17;11.80;99.90
2158;DHT22;41972;48.774;9.282;2023-04-24T15:51:42;11.70;99.90
2158;DHT22;41972;48.774;9.282;2023-04-24T15:54:08;11.30;99.90
2158;DHT22;41972;48.774;9.282;2023-04-24T15:56:34;10.80;99.90
2158;DHT22;41972;48.774;9.282;2023-04-24T15:59:01;10.20;99.90
2158;DHT22;41972;48.774;9.282;2023-04-24T16:01:28;11.20;99.90